Time,TemperatureF,DewpointF,PressureIn,WindDirection,WindDirectionDegrees,WindSpeedMPH,WindSpeedGustMPH,Humidity,HourlyPrecipIn,Conditions,Clouds,dailyrainin,SolarRadiationWatts/m^2,SoftwareType,DateUTC
2013-04-10 00:12:00,53.0,35.0,-100.00,South,171,10.0,16.0,51,-99.99,,,0.00,0.000000,,2013-04-10 07:12:00,
2013-04-10 01:12:00,52.0,35.0,-100.00,South,169,9.0,14.0,52,-99.99,,,0.00,0.000000,,2013-04-10 08:12:00,
2013-04-10 02:12:00,52.0,35.0,-100.00,SSE,153,5.0,13.0,51,-99.99,,,0.00,0.000000,,2013-04-10 09:12:00,
2013-04-10 03:12:00,52.0,34.0,-100.00,East,85,4.0,10.0,51,-99.99,,,-99.99,0.000000,,2013-04-10 10:12:00,
2013-04-10 04:12:00,51.0,34.0,-100.00,East,79,8.0,18.0,51,-99.99,,,0.00,0.000000,,2013-04-10 11:12:00,
2013-04-10 05:12:00,50.0,35.0,-100.00,ENE,78,9.0,17.0,54,-99.99,,,0.00,0.000000,,2013-04-10 12:12:00,
2013-04-10 06:12:00,50.0,35.0,-100.00,East,93,4.0,13.0,55,-99.99,,,0.00,0.000000,,2013-04-10 13:12:00,
2013-04-10 07:12:00,49.0,35.0,-100.00,ESE,103,5.0,13.0,58,-99.99,,,-99.99,0.230000,,2013-04-10 14:12:00,
2013-04-10 08:12:00,48.0,35.0,-100.00,East,82,8.0,18.0,60,-99.99,,,0.00,18.940001,,2013-04-10 15:12:00,
2013-04-10 09:13:00,48.0,35.0,-100.00,East,87,5.0,14.0,61,-99.99,,,0.00,59.270000,,2013-04-10 16:13:00,
2013-04-10 10:12:00,48.0,35.0,-100.00,East,81,10.0,16.0,60,-99.99,,,0.00,176.309998,,2013-04-10 17:12:00,
2013-04-10 12:12:00,52.0,37.0,-100.00,ENE,75,11.0,19.0,55,-99.99,,,-99.99,298.450012,,2013-04-10 19:12:00,
2013-04-10 13:12:00,54.0,41.0,-100.00,SW,228,3.0,12.0,60,-99.99,,,0.00,106.919998,,2013-04-10 20:12:00,
2013-04-10 14:02:00,57.0,43.0,-100.00,West,263,7.0,14.0,58,-99.99,,,-99.99,650.599976,,2013-04-10 21:02:00,
2013-04-10 14:12:00,57.0,43.0,-100.00,West,263,7.0,14.0,58,-99.99,,,-99.99,650.599976,,2013-04-10 21:12:00,
2013-04-10 14:42:00,61.0,41.0,-100.00,West,267,13.0,22.0,47,-99.99,,,0.00,725.679993,,2013-04-10 21:42:00,
2013-04-10 14:53:00,61.0,41.0,-100.00,West,267,13.0,22.0,47,-99.99,,,0.00,725.679993,,2013-04-10 21:53:00,
2013-04-10 15:03:00,61.0,41.0,-100.00,West,267,13.0,22.0,47,-99.99,,,0.00,725.679993,,2013-04-10 22:03:00,
2013-04-10 15:12:00,61.0,41.0,-100.00,West,267,13.0,22.0,47,-99.99,,,0.00,725.679993,,2013-04-10 22:12:00,
2013-04-10 16:12:00,61.0,36.0,-100.00,WSW,257,18.0,32.0,38,-99.99,,,0.00,734.630005,,2013-04-10 23:12:00,
2013-04-10 17:12:00,60.0,36.0,-100.00,West,260,16.0,29.0,41,-99.99,,,-99.99,260.910004,,2013-04-11 00:12:00,
2013-04-10 22:02:00,53.0,28.0,-100.00,West,268,9.0,17.0,37,-99.99,,,0.00,0.000000,,2013-04-11 05:02:00,
2013-04-10 22:12:00,53.0,28.0,-100.00,West,268,9.0,17.0,37,-99.99,,,0.00,0.000000,,2013-04-11 05:12:00,
2013-04-10 23:12:00,51.0,29.0,-100.00,WSW,252,2.0,6.0,42,-99.99,,,0.00,0.000000,,2013-04-11 06:12:00,